Time;durP1;ratioP1;P1;durP2;ratioP2;P2;SDS_P1;SDS_P2;PMS_P1;PMS_P2;Temp;Humidity;BMP_temperature;BMP_pressure;BME280_temperature;BME280_humidity;BME280_pressure;Samples;Min_cycle;Max_cycle;Signal;HPM_P1;HPM_P2
2022/09/30 06:39:54;;;;;;;5.60;4.93;;;18.20;85.50;;;;;;5071210;28;20437;-78
2022/09/30 06:42:22;;;;;;;7.35;5.88;;;18.20;85.80;;;;;;5069611;28;20524;-78
2022/09/30 06:44:47;;;;;;;7.75;6.63;;;18.20;87.00;;;;;;5067772;28;20360;-80
2022/09/30 06:47:13;;;;;;;8.93;7.30;;;18.30;87.70;;;;;;5069784;28;20027;-76
2022/09/30 06:49:41;;;;;;;8.68;7.15;;;18.40;88.20;;;;;;5070284;28;20031;-77
2022/09/30 06:52:08;;;;;;;9.88;8.13;;;18.50;88.50;;;;;;5070018;28;20036;-78
2022/09/30 06:54:34;;;;;;;9.48;8.00;;;18.60;88.50;;;;;;5069281;28;20029;-83
2022/09/30 06:57:01;;;;;;;10.32;8.35;;;18.70;88.60;;;;;;5069278;28;20028;-78
2022/09/30 06:59:26;;;;;;;9.27;8.32;;;18.80;88.70;;;;;;5070411;28;20036;-79
2022/09/30 07:01:52;;;;;;;11.73;8.77;;;18.90;88.60;;;;;;5070468;28;20115;-79
2022/09/30 07:04:18;;;;;;;10.10;8.25;;;19.00;88.40;;;;;;5070328;28;20021;-78
2022/09/30 07:06:44;;;;;;;9.52;8.27;;;19.10;88.20;;;;;;5070044;28;20025;-78
2022/09/30 07:09:11;;;;;;;10.65;8.40;;;19.20;87.90;;;;;;5070135;28;20032;-80
2022/09/30 07:11:37;;;;;;;13.13;9.63;;;19.30;87.60;;;;;;5070292;28;20172;-77
2022/09/30 07:14:06;;;;;;;11.48;9.10;;;19.30;87.30;;;;;;5070320;28;20435;-79
2022/09/30 07:16:35;;;;;;;11.30;8.88;;;19.40;87.00;;;;;;5068394;28;20119;-80
2022/09/30 07:19:03;;;;;;;11.15;9.40;;;19.50;86.80;;;;;;5068221;28;20041;-78
2022/09/30 07:21:30;;;;;;;11.43;8.88;;;19.60;86.60;;;;;;5068638;28;20028;-78
2022/09/30 07:23:57;;;;;;;10.68;8.88;;;19.70;86.40;;;;;;5069827;28;20017;-79
2022/09/30 07:26:24;;;;;;;10.40;9.30;;;19.80;86.10;;;;;;5069984;28;20035;-79
2022/09/30 07:28:51;;;;;;;10.93;9.80;;;19.90;85.90;;;;;;5069566;28;20028;-78
2022/09/30 07:31:20;;;;;;;10.93;9.07;;;20.00;85.60;;;;;;5068722;28;20088;-77
2022/09/30 07:33:46;;;;;;;10.18;9.15;;;20.10;85.30;;;;;;5053811;28;20026;-78
2022/09/30 07:36:17;;;;;;;10.93;9.73;;;20.20;85.00;;;;;;5049538;28;20036;-80
2022/09/30 07:38:44;;;;;;;10.77;9.25;;;20.30;84.70;;;;;;5049538;28;20053;-77
2022/09/30 07:41:13;;;;;;;11.30;8.80;;;20.30;84.30;;;;;;5049676;28;20486;-77
2022/09/30 07:43:42;;;;;;;10.95;9.05;;;20.40;84.10;;;;;;5048787;28;20129;-78
2022/09/30 07:46:11;;;;;;;10.63;9.45;;;20.40;83.80;;;;;;5049661;28;20486;-78
2022/09/30 07:48:43;;;;;;;10.30;8.55;;;20.40;83.50;;;;;;5049066;28;20029;-80
2022/09/30 07:51:19;;;;;;;10.10;8.60;;;20.40;83.50;;;;;;5035466;28;20455;-80
2022/09/30 07:53:48;;;;;;;11.25;9.05;;;20.30;83.30;;;;;;5035252;28;20033;-80
2022/09/30 07:56:15;;;;;;;9.38;8.35;;;20.30;83.40;;;;;;5035341;28;20113;-80
2022/09/30 07:58:41;;;;;;;9.43;8.38;;;20.30;83.40;;;;;;5030913;28;20471;-81
2022/09/30 08:01:08;;;;;;;9.55;8.20;;;20.30;83.40;;;;;;5033408;28;20068;-81
2022/09/30 08:03:39;;;;;;;10.27;7.72;;;20.30;83.30;;;;;;5034388;28;20041;-80
2022/09/30 08:06:11;;;;;;;9.20;8.18;;;20.30;83.20;;;;;;5034646;28;20080;-80
2022/09/30 08:08:37;;;;;;;8.38;7.47;;;20.30;83.20;;;;;;5031322;28;20036;-79
2022/09/30 08:11:04;;;;;;;8.80;7.90;;;20.30;83.20;;;;;;5033202;28;20017;-81
2022/09/30 08:13:30;;;;;;;8.65;7.45;;;20.40;83.10;;;;;;5034227;28;20423;-79
2022/09/30 08:15:56;;;;;;;8.68;7.78;;;20.50;82.90;;;;;;5032667;28;20079;-79
2022/09/30 08:18:21;;;;;;;9.27;7.47;;;20.50;82.70;;;;;;5029190;28;20474;-79
2022/09/30 08:20:48;;;;;;;8.85;7.03;;;20.60;82.40;;;;;;5033541;28;20376;-80
2022/09/30 08:23:13;;;;;;;7.90;7.10;;;20.60;82.10;;;;;;5034102;28;20068;-80
2022/09/30 08:25:39;;;;;;;7.80;7.00;;;20.60;82.00;;;;;;5057085;28;20057;-80
2022/09/30 08:28:05;;;;;;;8.25;7.35;;;20.60;81.90;;;;;;5023237;28;20121;-80
2022/09/30 08:30:33;;;;;;;8.13;7.32;;;20.60;81.90;;;;;;5024993;28;20066;-80
2022/09/30 08:32:59;;;;;;;7.78;7.03;;;20.60;81.90;;;;;;5023733;28;20043;-80
2022/09/30 08:35:25;;;;;;;7.50;6.70;;;20.60;81.90;;;;;;5022390;28;20105;-79
2022/09/30 08:37:50;;;;;;;9.48;6.95;;;20.60;81.80;;;;;;5034445;28;20046;-80
2022/09/30 08:40:29;;;;;;;7.45;6.65;;;20.60;81.60;;;;;;5034042;28;20087;-80
2022/09/30 08:43:12;;;;;;;8.18;6.78;;;20.60;81.30;;;;;;5033656;28;20486;-80
2022/09/30 08:46:04;;;;;;;7.57;6.35;;;20.70;81.30;;;;;;5034175;28;20104;-78
2022/09/30 08:48:37;;;;;;;7.57;6.40;;;20.70;81.00;;;;;;5032656;28;20378;-80
2022/09/30 08:51:26;;;;;;;7.13;6.15;;;20.70;81.10;;;;;;5032150;28;20052;-79
2022/09/30 08:53:54;;;;;;;7.60;5.88;;;20.70;80.80;;;;;;5031720;28;20025;-78
2022/09/30 08:56:26;;;;;;;7.50;6.45;;;20.60;81.00;;;;;;5029263;28;20025;-78
2022/09/30 08:59:05;;;;;;;7.40;5.90;;;20.60;80.90;;;;;;5029624;28;20360;-79
2022/09/30 09:01:32;;;;;;;7.45;6.47;;;20.70;81.00;;;;;;5029004;28;20018;-79
2022/09/30 09:04:00;;;;;;;7.80;6.65;;;20.70;80.90;;;;;;5032614;28;20030;-85
2022/09/30 09:06:44;;;;;;;7.75;6.05;;;20.60;80.80;;;;;;5033600;28;20022;-82
2022/09/30 09:09:22;;;;;;;9.90;6.65;;;20.70;80.50;;;;;;5032450;28;20760;-85
2022/09/30 09:11:55;;;;;;;6.78;6.07;;;20.70;80.70;;;;;;5026930;28;20159;-84
2022/09/30 09:14:41;;;;;;;7.47;6.32;;;20.80;80.70;;;;;;5023851;28;20424;-82
2022/09/30 09:17:35;;;;;;;6.53;5.82;;;20.80;80.60;;;;;;5032254;28;20021;-80
2022/09/30 09:20:14;;;;;;;6.80;6.10;;;20.90;80.30;;;;;;5055386;28;20037;-82
2022/09/30 09:22:42;;;;;;;7.30;6.30;;;20.90;80.40;;;;;;5029855;28;20022;-81
2022/09/30 09:25:20;;;;;;;7.78;6.53;;;20.90;80.20;;;;;;5032553;28;20063;-81
2022/09/30 09:27:54;;;;;;;7.22;6.53;;;21.00;79.90;;;;;;5020563;28;20033;-80
2022/09/30 09:30:22;;;;;;;7.20;6.25;;;21.10;80.10;;;;;;5054395;28;20029;-81
2022/09/30 09:33:10;;;;;;;7.25;6.47;;;21.10;79.90;;;;;;5031203;28;20464;-80
2022/09/30 09:35:39;;;;;;;7.30;6.57;;;21.20;79.70;;;;;;5029159;28;20048;-83
2022/09/30 09:38:25;;;;;;;7.07;6.20;;;21.30;79.70;;;;;;5032110;28;20053;-83
2022/09/30 09:41:13;;;;;;;7.72;6.40;;;21.30;79.50;;;;;;5032730;28;20018;-82
2022/09/30 09:43:59;;;;;;;7.35;6.32;;;21.40;79.10;;;;;;5030895;28;20022;-83
2022/09/30 09:46:33;;;;;;;8.77;6.68;;;21.50;79.20;;;;;;5030214;28;20258;-81
2022/09/30 09:49:21;;;;;;;7.25;6.40;;;21.50;79.20;;;;;;5031208;28;20029;-83
2022/09/30 09:51:57;;;;;;;7.85;6.20;;;21.60;78.80;;;;;;5030319;28;20060;-82
2022/09/30 09:54:26;;;;;;;6.15;5.55;;;21.60;78.80;;;;;;5029882;28;20136;-82
2022/09/30 09:56:53;;;;;;;7.13;6.43;;;21.70;78.60;;;;;;5031226;28;20109;-80
2022/09/30 09:59:19;;;;;;;6.95;6.07;;;21.70;78.50;;;;;;5030870;28;20026;-78
2022/09/30 10:01:51;;;;;;;7.70;6.88;;;21.70;78.30;;;;;;5031169;28;20036;-79
2022/09/30 10:04:24;;;;;;;8.13;7.05;;;21.70;78.10;;;;;;5029018;28;20502;-78
2022/09/30 10:07:18;;;;;;;7.57;6.70;;;21.70;78.00;;;;;;5032719;28;20041;-77
2022/09/30 10:09:44;;;;;;;9.40;7.73;;;21.80;78.00;;;;;;5032068;28;20036;-78
2022/09/30 10:12:10;;;;;;;8.98;7.60;;;21.70;78.00;;;;;;5033550;28;20250;-81
2022/09/30 10:14:46;;;;;;;10.73;7.93;;;21.70;78.00;;;;;;5032630;28;20029;-83
2022/09/30 10:17:34;;;;;;;9.70;8.25;;;21.80;78.00;;;;;;5031920;28;20029;-80
2022/09/30 10:20:05;;;;;;;10.35;8.50;;;21.70;77.90;;;;;;5031981;28;20083;-79
2022/09/30 10:22:32;;;;;;;10.98;8.57;;;21.70;77.90;;;;;;5032852;28;20527;-77
2022/09/30 10:25:13;;;;;;;10.90;8.45;;;21.80;77.90;;;;;;5033097;28;20139;-73
2022/09/30 10:27:49;;;;;;;10.63;8.70;;;21.80;77.70;;;;;;5033137;28;20468;-77
2022/09/30 10:30:47;;;;;;;11.18;8.15;;;21.80;77.70;;;;;;5032045;28;20026;-77
2022/09/30 10:33:25;;;;;;;10.73;8.32;;;21.80;78.10;;;;;;5031234;28;20026;-76
2022/09/30 10:36:16;;;;;;;12.77;8.90;;;21.70;77.60;;;;;;5032011;28;20047;-77
2022/09/30 10:38:58;;;;;;;10.57;8.73;;;21.70;77.50;;;;;;5030690;28;20061;-76
2022/09/30 10:41:27;;;;;;;9.85;8.68;;;21.70;77.60;;;;;;5030682;28;20029;-77
2022/09/30 10:44:02;;;;;;;11.25;8.48;;;21.60;77.80;;;;;;5032035;28;20021;-77
2022/09/30 10:46:32;;;;;;;10.48;8.35;;;21.60;77.90;;;;;;5031019;28;20715;-76
2022/09/30 10:48:59;;;;;;;10.32;8.93;;;21.70;78.20;;;;;;5032014;28;20044;-76
2022/09/30 10:51:33;;;;;;;10.18;8.65;;;21.70;78.20;;;;;;5032079;28;20383;-75
2022/09/30 10:54:00;;;;;;;10.48;8.63;;;21.80;78.00;;;;;;5033299;28;20083;-76
2022/09/30 10:56:39;;;;;;;10.55;8.90;;;21.80;77.90;;;;;;5033324;28;20021;-77
2022/09/30 10:59:15;;;;;;;12.20;8.93;;;21.80;77.60;;;;;;5033542;28;20063;-75
2022/09/30 11:01:47;;;;;;;10.48;8.88;;;21.80;77.70;;;;;;5032311;28;20464;-75
2022/09/30 11:04:21;;;;;;;10.63;8.60;;;21.80;77.70;;;;;;5033526;28;20029;-75
2022/09/30 11:06:50;;;;;;;10.02;8.95;;;21.90;77.70;;;;;;5031934;28;20482;-76
2022/09/30 11:09:38;;;;;;;13.05;9.30;;;21.90;77.70;;;;;;5033409;28;20042;-76
2022/09/30 11:12:15;;;;;;;10.65;8.80;;;22.00;77.30;;;;;;5033278;28;20468;-74
2022/09/30 11:15:22;;;;;;;12.15;9.60;;;22.00;77.40;;;;;;5033257;28;20029;-78
2022/09/30 11:17:54;;;;;;;10.20;8.85;;;22.10;77.10;;;;;;5033289;28;20021;-76
2022/09/30 11:20:35;;;;;;;9.70;8.45;;;22.10;77.10;;;;;;5032117;28;20025;-77
2022/09/30 11:23:05;;;;;;;10.70;9.10;;;22.10;77.00;;;;;;5033399;28;20423;-77
2022/09/30 11:25:46;;;;;;;9.75;8.18;;;22.10;77.00;;;;;;5033450;28;20459;-77
2022/09/30 11:28:40;;;;;;;11.25;8.98;;;22.10;76.90;;;;;;5036973;28;20076;-76
2022/09/30 11:31:39;;;;;;;11.35;9.23;;;22.10;76.70;;;;;;5032908;28;20125;-77
2022/09/30 11:34:08;;;;;;;10.52;8.82;;;22.10;76.70;;;;;;5036641;28;20509;-77
2022/09/30 11:36:45;;;;;;;9.63;8.35;;;22.20;77.00;;;;;;5035488;28;20057;-77
2022/09/30 11:39:17;;;;;;;10.57;8.43;;;22.20;76.90;;;;;;5035304;28;20140;-77
2022/09/30 11:41:56;;;;;;;10.35;8.40;;;22.20;76.70;;;;;;5036575;28;20056;-76
2022/09/30 11:44:29;;;;;;;9.38;8.25;;;22.20;76.70;;;;;;5036601;28;20018;-76
2022/09/30 11:47:13;;;;;;;12.27;8.70;;;22.20;76.50;;;;;;5036688;28;20029;-76
2022/09/30 11:50:06;;;;;;;10.38;8.32;;;22.20;76.60;;;;;;5036568;28;20033;-76
2022/09/30 11:52:51;;;;;;;9.50;8.05;;;22.20;76.40;;;;;;5036201;28;20025;-77
2022/09/30 11:55:19;;;;;;;;;;;22.20;76.50;;;;;;5035237;28;20025;-76
2022/09/30 11:57:53;;;;;;;8.68;7.65;;;22.20;76.30;;;;;;5036465;28;19905;-77
2022/09/30 12:00:19;;;;;;;9.60;7.57;;;22.30;76.70;;;;;;5036615;28;20036;-76
2022/09/30 12:02:55;;;;;;;9.40;8.15;;;22.30;76.60;;;;;;5036327;28;20060;-78
2022/09/30 12:05:52;;;;;;;8.57;7.63;;;22.40;76.50;;;;;;5036615;28;20040;-77
2022/09/30 12:08:34;;;;;;;9.80;7.93;;;22.50;76.20;;;;;;5033664;28;20472;-75
2022/09/30 12:11:22;;;;;;;8.85;7.75;;;22.60;76.30;;;;;;5035200;28;20428;-77
2022/09/30 12:14:17;;;;;;;9.43;7.75;;;22.70;75.90;;;;;;5036666;28;20030;-77
2022/09/30 12:16:45;;;;;;;8.90;8.00;;;22.70;75.70;;;;;;5028041;28;20033;-78
2022/09/30 12:19:33;;;;;;;8.88;7.97;;;22.80;75.80;;;;;;5034481;28;20051;-77
2022/09/30 12:22:29;;;;;;;9.00;7.90;;;22.80;75.70;;;;;;5036069;28;20072;-76
2022/09/30 12:24:55;;;;;;;9.63;8.23;;;22.80;75.20;;;;;;5032674;28;20464;-76
2022/09/30 12:27:33;;;;;;;9.00;8.05;;;22.80;75.30;;;;;;5035813;28;20093;-78
2022/09/30 12:30:17;;;;;;;8.55;7.65;;;22.70;75.20;;;;;;5034529;28;20036;-76
2022/09/30 12:33:09;;;;;;;10.43;7.97;;;22.70;75.30;;;;;;5036175;28;20032;-77
2022/09/30 12:35:57;;;;;;;9.27;7.65;;;22.60;75.20;;;;;;5034157;28;20101;-76
2022/09/30 12:38:40;;;;;;;8.77;7.78;;;22.70;75.30;;;;;;5035555;28;20460;-76
2022/09/30 12:41:33;;;;;;;8.52;7.55;;;22.70;75.50;;;;;;5035647;28;20024;-77
2022/09/30 12:44:17;;;;;;;8.63;7.45;;;22.70;75.40;;;;;;5035661;28;20105;-77
2022/09/30 12:46:46;;;;;;;10.13;7.40;;;22.80;75.40;;;;;;5034023;28;20033;-78
2022/09/30 12:49:18;;;;;;;8.52;7.45;;;22.80;75.40;;;;;;5034264;28;20037;-77
2022/09/30 12:51:49;;;;;;;8.95;7.70;;;22.90;75.30;;;;;;5034033;28;20187;-77
2022/09/30 12:54:38;;;;;;;9.20;7.60;;;22.80;75.00;;;;;;5035358;28;20029;-75
2022/09/30 12:57:08;;;;;;;8.45;7.43;;;22.80;74.90;;;;;;5034131;28;20041;-77
2022/09/30 12:59:53;;;;;;;8.98;7.50;;;22.80;75.00;;;;;;5034776;28;20061;-77
2022/09/30 13:02:34;;;;;;;8.80;7.70;;;22.80;74.70;;;;;;5034003;28;20025;-76
2022/09/30 13:05:38;;;;;;;8.77;7.88;;;22.90;75.40;;;;;;5033868;28;20034;-77
2022/09/30 13:08:03;;;;;;;8.80;7.90;;;22.90;74.50;;;;;;4993375;28;20046;-76
2022/09/30 13:10:30;;;;;;;9.10;7.90;;;22.90;74.80;;;;;;5022182;28;20033;-77
2022/09/30 13:13:18;;;;;;;8.50;7.57;;;22.90;74.70;;;;;;5035503;28;20030;-77
2022/09/30 13:15:45;;;;;;;9.95;7.80;;;22.90;74.30;;;;;;5034764;28;20033;-77
2022/09/30 13:18:19;;;;;;;9.05;7.63;;;22.80;74.60;;;;;;5033517;28;20071;-76
2022/09/30 13:21:03;;;;;;;8.05;7.22;;;22.80;74.60;;;;;;5034853;28;20032;-77
2022/09/30 13:23:44;;;;;;;8.63;7.67;;;22.90;75.40;;;;;;5034636;28;20052;-76
2022/09/30 13:26:22;;;;;;;8.00;7.20;;;23.00;74.60;;;;;;5034917;28;20033;-77
2022/09/30 13:28:49;;;;;;;8.10;7.30;;;23.20;74.50;;;;;;5032973;28;20476;-76
2022/09/30 13:31:44;;;;;;;8.32;7.45;;;23.30;74.40;;;;;;5033345;28;20026;-77
2022/09/30 13:34:21;;;;;;;8.57;7.68;;;23.40;74.00;;;;;;5016471;28;20037;-77
2022/09/30 13:36:50;;;;;;;9.50;8.00;;;23.50;74.00;;;;;;5033123;28;20045;-76
2022/09/30 13:39:24;;;;;;;9.30;8.30;;;23.60;73.80;;;;;;5034615;28;20064;-76
2022/09/30 13:41:52;;;;;;;;;;;23.70;73.50;;;;;;5034885;28;20460;-76
2022/09/30 13:44:24;;;;;;;7.88;7.00;;;23.70;73.00;;;;;;5034635;28;19905;-77
2022/09/30 13:46:58;;;;;;;8.57;7.68;;;23.80;73.20;;;;;;5034232;28;20055;-76
2022/09/30 13:49:42;;;;;;;7.65;6.85;;;23.90;73.00;;;;;;5033817;28;20030;-76
2022/09/30 13:52:37;;;;;;;8.05;7.25;;;24.10;72.80;;;;;;5034305;28;20040;-77
2022/09/30 13:55:17;;;;;;;7.68;6.88;;;24.30;72.50;;;;;;5033034;28;20045;-77
2022/09/30 13:57:51;;;;;;;7.88;6.82;;;24.50;72.10;;;;;;5032519;28;20451;-77
2022/09/30 14:00:20;;;;;;;9.93;7.03;;;24.60;71.70;;;;;;5033026;28;20025;-76
2022/09/30 14:03:47;;;;;;;7.80;6.97;;;24.80;71.60;;;;;;5032583;28;20025;-75
2022/09/30 14:06:35;;;;;;;8.05;7.25;;;25.00;71.10;;;;;;4992636;28;20053;-76
2022/09/30 14:09:13;;;;;;;7.70;6.93;;;25.10;71.10;;;;;;4992446;28;20034;-76
2022/09/30 14:11:58;;;;;;;7.45;6.75;;;25.00;70.40;;;;;;5027366;28;20353;-75
2022/09/30 14:14:26;;;;;;;7.90;7.07;;;24.90;70.40;;;;;;5032533;28;20029;-76
2022/09/30 14:16:55;;;;;;;7.90;7.10;;;24.70;70.90;;;;;;5033737;28;20468;-76
2022/09/30 14:19:44;;;;;;;8.35;7.35;;;24.70;71.00;;;;;;5033902;28;20026;-77
2022/09/30 14:22:13;;;;;;;8.48;7.60;;;24.50;70.50;;;;;;5033218;28;20151;-78
2022/09/30 14:24:39;;;;;;;8.43;7.43;;;24.30;71.00;;;;;;5032262;28;20048;-77
2022/09/30 14:27:28;;;;;;;8.27;7.47;;;24.20;71.30;;;;;;5034155;28;20033;-76
2022/09/30 14:30:18;;;;;;;8.00;7.15;;;24.10;71.30;;;;;;5032358;28;20033;-76
2022/09/30 14:32:49;;;;;;;7.70;6.90;;;24.00;71.60;;;;;;5033621;28;20026;-77
2022/09/30 14:35:22;;;;;;;10.32;7.72;;;23.90;71.60;;;;;;5033619;28;20057;-76
2022/09/30 14:37:52;;;;;;;9.85;8.57;;;23.90;71.60;;;;;;5033285;28;20077;-75
2022/09/30 14:40:26;;;;;;;8.82;7.97;;;23.80;71.60;;;;;;5033308;28;20026;-76
2022/09/30 14:42:54;;;;;;;9.02;8.13;;;23.60;71.60;;;;;;5032091;28;20026;-77
2022/09/30 14:45:30;;;;;;;9.23;8.32;;;23.50;71.70;;;;;;5033285;28;20239;-77
2022/09/30 14:48:01;;;;;;;9.45;8.43;;;23.40;71.70;;;;;;5033365;28;20044;-78
2022/09/30 14:50:41;;;;;;;11.15;9.13;;;23.30;71.90;;;;;;5033397;28;20036;-75
2022/09/30 14:53:24;;;;;;;9.23;8.18;;;23.10;72.00;;;;;;5032265;28;20030;-75
2022/09/30 14:55:50;;;;;;;9.77;8.77;;;23.00;72.10;;;;;;5033234;28;20144;-76
2022/09/30 14:58:20;;;;;;;9.85;8.75;;;23.00;72.50;;;;;;5032244;28;20084;-76
2022/09/30 15:01:00;;;;;;;9.18;8.15;;;23.00;72.50;;;;;;5034625;28;20120;-77
2022/09/30 15:03:27;;;;;;;9.27;8.32;;;23.00;72.30;;;;;;5037248;28;20029;-76
2022/09/30 15:05:54;;;;;;;9.65;8.65;;;22.90;72.40;;;;;;5037054;28;20021;-76
2022/09/30 15:08:21;;;;;;;9.13;8.23;;;22.90;72.40;;;;;;5037266;28;20056;-76
2022/09/30 15:10:53;;;;;;;8.82;7.85;;;22.80;72.50;;;;;;5037132;28;20257;-77
2022/09/30 15:13:25;;;;;;;10.80;8.80;;;22.70;72.50;;;;;;5036991;28;20026;-76
2022/09/30 15:15:51;;;;;;;9.00;8.10;;;22.60;72.70;;;;;;5035590;28;20033;-77
2022/09/30 15:18:45;;;;;;;9.50;8.05;;;22.60;72.80;;;;;;5036922;28;20040;-76
2022/09/30 15:21:14;;;;;;;9.73;8.73;;;22.50;72.70;;;;;;5031827;28;20087;-76
2022/09/30 15:23:51;;;;;;;9.48;8.38;;;22.40;73.10;;;;;;5035039;28;20255;-76
2022/09/30 15:26:19;;;;;;;9.20;8.27;;;22.30;73.10;;;;;;5036612;28;20032;-77
2022/09/30 15:28:46;;;;;;;8.93;8.02;;;22.20;73.80;;;;;;5036383;28;20120;-77
2022/09/30 15:31:25;;;;;;;9.30;8.40;;;22.10;73.40;;;;;;5036733;28;20041;-76
2022/09/30 15:34:13;;;;;;;10.32;8.90;;;22.00;73.40;;;;;;5035537;28;20460;-76
2022/09/30 15:36:39;;;;;;;9.30;8.40;;;22.00;73.60;;;;;;5036844;28;20034;-77
2022/09/30 15:39:17;;;;;;;8.57;7.78;;;21.90;73.80;;;;;;5036357;28;20088;-75
2022/09/30 15:41:45;;;;;;;9.13;8.18;;;21.80;73.80;;;;;;5036307;28;20028;-76
2022/09/30 15:44:38;;;;;;;9.68;8.32;;;21.70;74.00;;;;;;5036443;28;20079;-77
2022/09/30 15:47:07;;;;;;;8.63;7.82;;;21.60;73.90;;;;;;5035005;28;20444;-78
2022/09/30 15:49:45;;;;;;;10.02;8.25;;;21.60;74.30;;;;;;5034850;28;20037;-76
2022/09/30 15:52:35;;;;;;;9.60;8.27;;;21.50;74.30;;;;;;5035849;28;20486;-76
2022/09/30 15:55:21;;;;;;;10.27;8.80;;;21.50;74.40;;;;;;5036066;28;20037;-75
2022/09/30 15:57:50;;;;;;;9.93;8.70;;;21.40;74.60;;;;;;5034487;28;20065;-77
2022/09/30 16:00:44;;;;;;;11.57;8.93;;;21.40;74.80;;;;;;5018953;28;20060;-77
2022/09/30 16:03:27;;;;;;;12.25;9.20;;;21.30;74.80;;;;;;5034656;28;20071;-75
2022/09/30 16:06:05;;;;;;;11.67;8.53;;;21.20;75.10;;;;;;5035012;28;20037;-76
2022/09/30 16:08:42;;;;;;;10.60;9.35;;;21.20;75.40;;;;;;5035645;28;20040;-76
2022/09/30 16:11:08;;;;;;;13.80;9.82;;;21.10;75.50;;;;;;5034364;28;20030;-76
2022/09/30 16:13:41;;;;;;;10.27;8.82;;;21.10;75.70;;;;;;5036124;28;20017;-76
2022/09/30 16:16:19;;;;;;;11.13;9.23;;;21.00;75.80;;;;;;5035054;28;20029;-77
2022/09/30 16:18:46;;;;;;;9.60;8.60;;;21.00;75.80;;;;;;5035983;28;20561;-76
2022/09/30 16:21:29;;;;;;;10.88;9.45;;;21.00;76.00;;;;;;5034699;28;20036;-77
2022/09/30 16:23:56;;;;;;;9.55;8.55;;;20.90;76.00;;;;;;5034793;28;20116;-77
2022/09/30 16:26:28;;;;;;;11.75;10.35;;;20.90;76.20;;;;;;5035783;28;20033;-76
2022/09/30 16:28:55;;;;;;;11.60;10.40;;;20.90;76.40;;;;;;5036128;28;20069;-77
2022/09/30 16:31:22;;;;;;;12.20;10.80;;;20.80;76.50;;;;;;5034291;28;20091;-76
2022/09/30 16:33:48;;;;;;;12.30;10.52;;;20.80;76.60;;;;;;5034102;28;20463;-76
2022/09/30 16:36:14;;;;;;;13.27;10.60;;;20.80;76.70;;;;;;5034981;28;20060;-78
2022/09/30 16:38:41;;;;;;;12.95;10.23;;;20.80;76.80;;;;;;5033732;28;20057;-76
2022/09/30 16:41:11;;;;;;;12.95;10.20;;;20.70;76.90;;;;;;5035741;28;20398;-77
2022/09/30 16:43:37;;;;;;;12.68;10.07;;;20.70;77.10;;;;;;5034168;28;20160;-76
2022/09/30 16:46:04;;;;;;;12.68;10.20;;;20.70;77.20;;;;;;5035427;28;20029;-76
2022/09/30 16:48:30;;;;;;;12.73;10.52;;;20.60;77.20;;;;;;5035028;28;20037;-76
2022/09/30 16:51:04;;;;;;;11.90;10.65;;;20.60;77.30;;;;;;5034565;28;20029;-77
2022/09/30 16:53:30;;;;;;;12.80;9.97;;;20.60;77.30;;;;;;5035399;28;20026;-76
2022/09/30 16:55:56;;;;;;;12.32;10.23;;;20.60;77.40;;;;;;5035124;28;20620;-76
2022/09/30 16:58:22;;;;;;;11.27;9.80;;;20.50;77.40;;;;;;5034902;28;20025;-76
2022/09/30 17:00:48;;;;;;;12.13;10.50;;;20.50;77.50;;;;;;5035185;28;20026;-77
2022/09/30 17:03:16;;;;;;;12.43;11.00;;;20.50;77.60;;;;;;5035259;28;20411;-77
2022/09/30 17:05:43;;;;;;;12.80;9.98;;;20.50;77.70;;;;;;5035511;28;20022;-76
2022/09/30 17:08:15;;;;;;;13.15;11.32;;;20.50;77.80;;;;;;5033816;28;20033;-77
2022/09/30 17:10:43;;;;;;;13.90;10.68;;;20.50;77.90;;;;;;5035242;28;20017;-77
2022/09/30 17:13:09;;;;;;;13.10;11.20;;;20.40;77.90;;;;;;5034833;28;20025;-76
2022/09/30 17:15:36;;;;;;;12.68;10.98;;;20.40;78.00;;;;;;5035024;28;20022;-78
2022/09/30 17:18:08;;;;;;;13.80;12.05;;;20.40;78.00;;;;;;5034882;28;20033;-75
2022/09/30 17:20:42;;;;;;;14.18;12.25;;;20.40;78.10;;;;;;5033803;28;20060;-77
2022/09/30 17:23:08;;;;;;;14.75;12.30;;;20.40;78.10;;;;;;5034684;28;20040;-77
2022/09/30 17:25:39;;;;;;;12.82;11.52;;;20.40;78.20;;;;;;5033637;28;20033;-78
2022/09/30 17:28:05;;;;;;;13.70;12.05;;;20.30;78.20;;;;;;5033238;28;20025;-76
2022/09/30 17:30:32;;;;;;;14.07;11.75;;;20.30;78.30;;;;;;5034963;28;20052;-77
2022/09/30 17:32:58;;;;;;;14.55;12.00;;;20.30;78.40;;;;;;5033126;28;20026;-77
2022/09/30 17:35:24;;;;;;;15.18;12.48;;;20.30;78.50;;;;;;5034732;28;20041;-76
2022/09/30 17:37:49;;;;;;;14.88;13.20;;;20.30;78.50;;;;;;5034199;28;20543;-77
2022/09/30 17:43:12;;;;;;;16.00;13.63;;;20.20;78.60;;;;;;5034352;28;20048;-77
2022/09/30 17:45:43;;;;;;;15.02;13.02;;;20.20;78.60;;;;;;5033510;28;20422;-77
2022/09/30 17:48:12;;;;;;;15.75;13.40;;;20.20;78.70;;;;;;5033030;28;20082;-76
2022/09/30 17:50:44;;;;;;;15.27;13.68;;;20.20;78.80;;;;;;5032921;28;20033;-77
2022/09/30 17:53:13;;;;;;;15.25;13.05;;;20.20;79.40;;;;;;5034465;28;20033;-78
2022/09/30 17:55:40;;;;;;;15.10;12.75;;;20.20;78.90;;;;;;5033009;28;20022;-76
2022/09/30 17:58:08;;;;;;;16.10;13.30;;;20.10;78.80;;;;;;5034085;28;20495;-76
2022/09/30 18:00:35;;;;;;;15.00;13.25;;;20.10;78.90;;;;;;5034126;28;20021;-77
2022/09/30 18:03:02;;;;;;;15.07;13.13;;;20.10;78.90;;;;;;5032505;28;20032;-76
2022/09/30 18:05:28;;;;;;;15.38;13.57;;;20.10;78.90;;;;;;5033720;28;20395;-77
2022/09/30 18:07:56;;;;;;;15.45;13.65;;;20.10;79.00;;;;;;5032785;28;20022;-77
2022/09/30 18:10:23;;;;;;;15.07;13.48;;;20.10;79.00;;;;;;5033049;28;20419;-77
2022/09/30 18:12:51;;;;;;;15.80;13.80;;;20.10;79.10;;;;;;5032867;28;20453;-78
2022/09/30 18:15:17;;;;;;;16.42;13.75;;;20.10;79.10;;;;;;5034449;28;20033;-78
2022/09/30 18:17:43;;;;;;;17.45;14.07;;;20.10;79.20;;;;;;5032709;28;20029;-77
2022/09/30 18:20:10;;;;;;;16.42;13.68;;;20.00;79.10;;;;;;5016102;28;20545;-77
2022/09/30 18:22:36;;;;;;;15.90;13.65;;;20.00;79.20;;;;;;5032645;28;20025;-77
2022/09/30 18:25:20;;;;;;;15.55;13.13;;;20.00;79.20;;;;;;5016292;28;20068;-77
2022/09/30 18:27:54;;;;;;;14.65;12.95;;;20.00;79.30;;;;;;5018544;28;20124;-76
2022/09/30 18:30:20;;;;;;;17.13;13.07;;;20.00;79.30;;;;;;5032413;28;20065;-76
2022/09/30 18:32:52;;;;;;;14.98;12.90;;;20.00;79.40;;;;;;5032545;28;20053;-77
2022/09/30 18:35:20;;;;;;;14.93;12.52;;;19.90;79.30;;;;;;5033598;28;20033;-77
2022/09/30 18:37:50;;;;;;;16.25;13.30;;;19.90;79.40;;;;;;5033882;28;20472;-78
2022/09/30 18:40:22;;;;;;;15.35;13.05;;;19.90;79.40;;;;;;5033671;28;20029;-76
2022/09/30 18:42:54;;;;;;;14.88;13.20;;;19.90;79.50;;;;;;5032733;28;20474;-77
2022/09/30 18:45:20;;;;;;;15.95;13.52;;;19.90;79.50;;;;;;5032499;28;20031;-77
2022/09/30 18:47:47;;;;;;;16.75;13.25;;;19.90;79.60;;;;;;5033445;28;20037;-77
2022/09/30 18:50:13;;;;;;;16.02;12.48;;;19.90;79.70;;;;;;5033681;28;20033;-77
2022/09/30 18:52:39;;;;;;;15.95;13.45;;;19.90;79.70;;;;;;5033559;28;20025;-78
2022/09/30 18:55:08;;;;;;;16.27;13.60;;;19.80;79.70;;;;;;5033681;28;20030;-77
2022/09/30 18:57:33;;;;;;;16.00;13.25;;;19.80;79.70;;;;;;5032190;28;20028;-76
2022/09/30 19:00:00;;;;;;;17.42;14.07;;;19.80;79.70;;;;;;5033476;28;20068;-76
2022/09/30 19:02:26;;;;;;;14.15;12.25;;;19.80;79.80;;;;;;5032253;28;20026;-77
2022/09/30 19:04:57;;;;;;;15.52;13.02;;;19.80;79.80;;;;;;5033392;28;20030;-76
2022/09/30 19:07:23;;;;;;;18.55;13.95;;;19.80;79.80;;;;;;5032204;28;20061;-78
2022/09/30 19:09:50;;;;;;;19.23;13.85;;;19.70;79.80;;;;;;5031930;28;20044;-75
2022/09/30 19:12:16;;;;;;;17.27;13.65;;;19.70;79.80;;;;;;5015343;28;20115;-75
2022/09/30 19:14:45;;;;;;;15.80;13.57;;;19.70;79.90;;;;;;5032190;28;20105;-78
2022/09/30 19:17:11;;;;;;;20.25;15.93;;;19.70;79.90;;;;;;5032672;28;20052;-77
2022/09/30 19:19:39;;;;;;;18.98;15.82;;;19.70;80.00;;;;;;5033693;28;20056;-77
2022/09/30 19:22:09;;;;;;;18.05;15.82;;;19.70;80.00;;;;;;5033331;28;20087;-76
2022/09/30 19:24:36;;;;;;;19.20;14.63;;;19.70;80.10;;;;;;5015816;28;20030;-77
2022/09/30 19:27:03;;;;;;;18.17;15.65;;;19.70;80.00;;;;;;5033062;28;20057;-77
2022/09/30 19:29:30;;;;;;;19.85;16.67;;;19.70;80.10;;;;;;5032933;28;20494;-77
2022/09/30 19:31:56;;;;;;;18.88;14.95;;;19.70;80.10;;;;;;5032224;28;20021;-77
2022/09/30 19:34:24;;;;;;;19.80;15.80;;;19.70;80.10;;;;;;5031741;28;20364;-76
2022/09/30 19:36:52;;;;;;;19.23;15.30;;;19.70;80.10;;;;;;5031974;28;20029;-77
2022/09/30 19:39:18;;;;;;;16.70;14.23;;;19.70;80.10;;;;;;5032644;28;20053;-77
2022/09/30 19:41:46;;;;;;;19.67;15.32;;;19.70;80.20;;;;;;5031899;28;20391;-77
2022/09/30 19:44:18;;;;;;;19.23;15.45;;;19.70;80.10;;;;;;5031824;28;20033;-78
2022/09/30 19:46:45;;;;;;;19.73;14.23;;;19.60;80.10;;;;;;5035468;28;20025;-77
2022/09/30 19:49:11;;;;;;;17.80;13.63;;;19.60;80.10;;;;;;5036576;28;20140;-76
2022/09/30 19:51:37;;;;;;;16.77;14.23;;;19.60;80.10;;;;;;5035269;28;20040;-77
2022/09/30 19:54:03;;;;;;;18.95;14.95;;;19.60;80.10;;;;;;5035311;28;20375;-75